Time;durP1;ratioP1;P1;durP2;ratioP2;P2;SDS_P1;SDS_P2;PMS_P1;PMS_P2;Temp;Humidity;BMP_temperature;BMP_pressure;BME280_temperature;BME280_humidity;BME280_pressure;Samples;Min_cycle;Max_cycle;Signal;HPM_P1;HPM_P2
2023/07/29 00:01:56;;;;;;;15.30;6.07;;;;;;;29.07;73.71;100516.00;5053088;28;65564;-39
2023/07/29 00:04:28;;;;;;;6.45;5.82;;;;;;;29.04;75.63;100505.63;5054718;28;68838;-37
2023/07/29 00:06:59;;;;;;;13.50;5.60;;;;;;;29.19;73.39;100511.56;5055984;28;66062;-38
2023/07/29 00:09:31;;;;;;;10.07;5.82;;;;;;;29.22;74.01;100505.72;5053000;28;69508;-35
2023/07/29 00:12:02;;;;;;;19.63;6.15;;;;;;;29.24;76.94;100514.44;5053113;28;65872;-37
2023/07/29 00:14:34;;;;;;;10.88;6.15;;;;;;;29.32;75.36;100526.84;5051899;28;70089;-38
2023/07/29 00:17:05;;;;;;;6.85;5.80;;;;;;;29.34;75.68;100531.00;5055537;28;65545;-37
2023/07/29 00:19:37;;;;;;;21.98;6.22;;;;;;;29.29;77.91;100516.50;5057452;28;70400;-37
2023/07/29 00:22:09;;;;;;;16.27;5.90;;;;;;;29.43;77.42;100520.75;5054966;28;65014;-38
2023/07/29 00:24:41;;;;;;;7.28;4.57;;;;;;;29.27;77.39;100495.09;5056494;28;69894;-36
2023/07/29 00:27:12;;;;;;;8.60;4.65;;;;;;;29.48;76.82;100520.09;5058644;28;66409;-37
2023/07/29 00:29:44;;;;;;;8.77;5.05;;;;;;;29.48;76.69;100530.91;5058385;28;70409;-38
2023/07/29 00:32:15;;;;;;;;;;;;;;;29.15;83.73;100529.25;5055693;28;66356;-36
2023/07/29 00:34:47;;;;;;;10.82;5.00;;;;;;;29.47;78.26;100523.84;5057422;28;70163;-36
2023/07/29 00:37:18;;;;;;;9.32;5.30;;;;;;;29.51;79.89;100546.69;5056315;28;66649;-36
2023/07/29 00:39:50;;;;;;;7.32;5.38;;;;;;;29.57;80.18;100553.91;5053674;28;70159;-39
2023/07/29 00:42:21;;;;;;;9.80;5.68;;;;;;;29.56;79.16;100560.34;5052620;28;66766;-37
2023/07/29 00:44:52;;;;;;;9.10;5.80;;;;;;;29.59;78.40;100554.53;5054975;28;70603;-36
2023/07/29 00:47:25;;;;;;;14.00;5.80;;;;;;;29.59;77.52;100555.34;5056469;28;66370;-37
2023/07/29 00:49:57;;;;;;;6.78;5.95;;;;;;;29.64;77.18;100568.22;5056961;28;69399;-37
2023/07/29 00:52:29;;;;;;;6.78;5.43;;;;;;;29.68;76.39;100574.84;5048502;28;66016;-37
2023/07/29 00:55:01;;;;;;;7.25;5.70;;;;;;;29.66;77.08;100576.94;5053596;28;70581;-36
2023/07/29 00:57:33;;;;;;;7.68;5.30;;;;;;;29.11;76.78;100476.69;5058209;28;65832;-37
2023/07/29 01:00:08;;;;;;;7.72;5.80;;;;;;;29.11;77.84;100482.09;5043088;28;69890;-38
2023/07/29 01:02:40;;;;;;;15.70;5.85;;;;;;;29.75;77.07;100585.59;5052039;28;66913;-38
2023/07/29 01:05:15;;;;;;;9.13;6.00;;;;;;;29.61;77.79;100582.13;5049872;28;70565;-38
2023/07/29 01:08:05;;;;;;;9.82;6.20;;;;;;;29.76;76.92;100593.50;5057918;28;66014;-38
2023/07/29 01:10:59;;;;;;;8.57;6.30;;;;;;;29.69;79.93;100600.00;5048748;28;70694;-38
2023/07/29 01:13:54;;;;;;;6.22;5.55;;;;;;;29.04;81.48;100508.34;5050413;28;65987;-38
2023/07/29 01:16:43;;;;;;;12.55;5.97;;;;;;;29.68;80.87;100607.28;5044179;28;69823;-39
2023/07/29 01:19:42;;;;;;;9.40;5.97;;;;;;;29.28;80.97;100547.22;5045088;28;66756;-36
2023/07/29 01:22:16;;;;;;;8.65;6.00;;;;;;;29.74;79.72;100611.81;5042482;28;70526;-38
2023/07/29 01:24:48;;;;;;;6.15;5.35;;;;;;;29.76;78.57;100617.84;5046171;28;67003;-39
2023/07/29 01:27:20;;;;;;;10.57;5.90;;;;;;;29.38;79.63;100563.81;5052882;28;70479;-38
2023/07/29 01:29:52;;;;;;;8.48;5.68;;;;;;;29.75;78.91;100632.38;5054448;28;65811;-38
2023/07/29 01:32:32;;;;;;;;;;;;;;;29.43;83.98;100630.72;5053894;28;70731;-39
2023/07/29 01:35:19;;;;;;;12.52;5.57;;;;;;;29.46;81.59;100603.25;5046948;28;65625;-38
2023/07/29 01:38:03;;;;;;;7.18;5.38;;;;;;;29.38;81.27;100580.84;5049931;28;70074;-37
2023/07/29 01:40:35;;;;;;;7.85;5.45;;;;;;;29.80;80.22;100640.69;5057123;28;65346;-38
2023/07/29 01:43:08;;;;;;;11.43;5.10;;;;;;;29.89;78.68;100640.41;5054192;28;69458;-38
2023/07/29 01:45:40;;;;;;;7.95;5.28;;;;;;;29.93;78.81;100657.88;5059509;28;66088;-37
2023/07/29 01:48:12;;;;;;;7.43;5.20;;;;;;;29.92;78.63;100648.94;5050110;28;70253;-37
2023/07/29 01:50:43;;;;;;;11.90;5.20;;;;;;;29.92;78.44;100648.09;5057439;28;66099;-38
2023/07/29 01:53:15;;;;;;;6.30;4.53;;;;;;;29.94;79.04;100656.81;5052644;28;69814;-38
2023/07/29 01:55:47;;;;;;;7.95;4.78;;;;;;;29.90;78.39;100644.78;5053927;28;66404;-40
2023/07/29 01:58:18;;;;;;;11.35;4.28;;;;;;;29.97;78.69;100651.78;5055174;28;70144;-38
2023/07/29 02:00:50;;;;;;;5.47;4.95;;;;;;;29.94;78.65;100648.69;5045850;28;65734;-37
2023/07/29 02:03:22;;;;;;;8.95;4.75;;;;;;;29.46;79.05;100585.16;5051013;28;70686;-38
2023/07/29 02:05:54;;;;;;;5.57;4.82;;;;;;;29.95;78.30;100650.34;5046760;28;66645;-37
2023/07/29 02:08:25;;;;;;;7.57;5.72;;;;;;;29.71;78.70;100616.84;5051429;28;70007;-38
2023/07/29 02:10:57;;;;;;;7.45;4.75;;;;;;;30.00;78.34;100655.94;5052734;28;66642;-38
2023/07/29 02:13:29;;;;;;;7.03;4.55;;;;;;;30.10;77.84;100664.38;5045686;28;71517;-39
2023/07/29 02:16:00;;;;;;;5.55;4.85;;;;;;;30.12;77.62;100646.06;5052568;28;66414;-39
2023/07/29 02:18:32;;;;;;;6.32;4.85;;;;;;;30.22;77.42;100651.00;5047617;28;69061;-38
2023/07/29 02:21:04;;;;;;;9.63;4.40;;;;;;;30.25;76.38;100651.38;5047165;28;66270;-38
2023/07/29 02:23:36;;;;;;;5.60;3.97;;;;;;;30.32;76.54;100653.22;5046941;28;69944;-38
2023/07/29 02:26:07;;;;;;;5.00;3.80;;;;;;;30.21;76.24;100628.50;5046799;28;65771;-38
2023/07/29 02:28:39;;;;;;;8.15;3.67;;;;;;;30.40;75.64;100663.75;5056675;28;70076;-38
2023/07/29 02:31:20;;;;;;;3.85;3.55;;;;;;;29.91;75.80;100585.06;5054260;28;66745;-37
2023/07/29 02:33:52;;;;;;;7.28;3.97;;;;;;;30.33;75.74;100644.03;5054846;28;69510;-39
2023/07/29 02:36:25;;;;;;;5.65;3.40;;;;;;;30.26;75.17;100636.00;5048660;28;66200;-38
2023/07/29 02:38:57;;;;;;;4.05;3.28;;;;;;;30.49;75.73;100668.66;5052175;28;70348;-39
2023/07/29 02:41:29;;;;;;;4.72;3.72;;;;;;;30.50;75.34;100664.06;5052149;28;65931;-38
2023/07/29 02:44:00;;;;;;;4.60;3.35;;;;;;;30.49;75.32;100654.28;5052758;28;69624;-40
2023/07/29 02:46:32;;;;;;;3.92;3.55;;;;;;;30.53;75.04;100660.91;5052060;28;66611;-37
2023/07/29 02:49:04;;;;;;;6.72;3.60;;;;;;;30.59;75.42;100662.75;5051352;28;70214;-37
2023/07/29 02:51:36;;;;;;;4.60;3.60;;;;;;;30.59;74.87;100665.44;5050361;28;66297;-38
2023/07/29 02:54:07;;;;;;;3.40;3.10;;;;;;;30.62;75.23;100662.28;5052221;28;69414;-39
2023/07/29 02:56:39;;;;;;;4.05;3.65;;;;;;;30.56;75.14;100660.44;5052933;28;65331;-39
2023/07/29 02:59:11;;;;;;;4.57;3.80;;;;;;;30.26;75.21;100609.75;5056424;28;70123;-37
2023/07/29 03:01:45;;;;;;;4.20;3.42;;;;;;;30.62;74.72;100656.88;5057120;28;66366;-38
2023/07/29 03:04:17;;;;;;;5.32;3.45;;;;;;;30.60;74.94;100647.31;5054701;28;69345;-39
2023/07/29 03:06:48;;;;;;;;;;;;;;;30.33;75.95;100646.75;5054201;28;66694;-38
2023/07/29 03:09:19;;;;;;;4.00;3.50;;;;;;;30.32;74.92;100597.22;5053058;28;70426;-40
2023/07/29 03:11:52;;;;;;;4.75;3.80;;;;;;;30.72;75.01;100651.75;5055129;28;65586;-39
2023/07/29 03:14:24;;;;;;;3.40;3.00;;;;;;;30.67;74.65;100621.00;5046821;28;70262;-38
2023/07/29 03:16:55;;;;;;;;;;;;;;;30.42;75.99;100637.28;5045043;28;65866;-38
2023/07/29 03:19:26;;;;;;;3.38;2.72;;;;;;;30.77;74.35;100634.84;5037861;28;70462;-38
2023/07/29 03:21:58;;;;;;;4.22;2.90;;;;;;;30.78;74.14;100622.13;5052962;28;66711;-38
2023/07/29 03:24:30;;;;;;;11.23;3.30;;;;;;;30.82;74.35;100629.63;5068564;28;69199;-38
2023/07/29 03:27:01;;;;;;;3.55;2.80;;;;;;;30.86;74.36;100635.41;5043196;28;66926;-37
2023/07/29 03:29:33;;;;;;;4.45;3.15;;;;;;;30.75;73.99;100611.75;5052234;28;69200;-35
2023/07/29 03:32:06;;;;;;;3.58;3.28;;;;;;;30.84;74.10;100615.81;5041011;28;66375;-36
2023/07/29 03:34:40;;;;;;;4.45;3.35;;;;;;;30.66;76.34;100636.41;5053573;28;68904;-39
2023/07/29 03:37:11;;;;;;;3.78;2.80;;;;;;;30.62;76.72;100637.94;5052351;28;66057;-39
2023/07/29 03:39:43;;;;;;;6.55;3.33;;;;;;;30.61;77.20;100638.13;5057508;28;69747;-38
2023/07/29 03:42:14;;;;;;;6.22;3.42;;;;;;;30.51;78.14;100635.97;5045384;28;66184;-40
2023/07/29 03:44:46;;;;;;;4.65;3.30;;;;;;;30.58;77.84;100644.81;5044384;28;70208;-38
2023/07/29 03:47:17;;;;;;;6.65;3.13;;;;;;;30.61;77.89;100632.72;5054299;28;66045;-39
2023/07/29 03:49:49;;;;;;;3.70;2.92;;;;;;;30.58;78.45;100628.59;5056058;28;69970;-40
2023/07/29 03:52:23;;;;;;;3.88;3.30;;;;;;;30.61;78.11;100628.13;5057328;28;65493;-40
2023/07/29 03:54:54;;;;;;;6.82;3.25;;;;;;;30.45;78.50;100596.25;5053593;28;69884;-40
2023/07/29 03:57:26;;;;;;;6.20;3.85;;;;;;;30.62;78.69;100639.78;5058996;28;66123;-38
2023/07/29 03:59:58;;;;;;;4.65;3.70;;;;;;;30.59;78.97;100638.38;5057175;28;70509;-38
2023/07/29 04:02:32;;;;;;;8.63;3.30;;;;;;;30.62;79.19;100629.81;5059829;28;65782;-37
2023/07/29 04:05:04;;;;;;;4.07;3.33;;;;;;;30.62;79.20;100627.09;5057066;28;70163;-38
2023/07/29 04:07:37;;;;;;;4.25;3.00;;;;;;;30.66;78.57;100625.59;5059208;28;68212;-38
2023/07/29 04:10:09;;;;;;;9.20;3.50;;;;;;;30.65;78.83;100623.94;5040214;28;69452;-38
2023/07/29 04:12:40;;;;;;;;;;;;;;;30.44;79.66;100632.47;5050748;28;66683;-39
2023/07/29 04:15:11;;;;;;;11.15;3.83;;;;;;;30.67;79.04;100638.09;5054040;28;69346;-40
2023/07/29 04:17:43;;;;;;;4.15;3.60;;;;;;;30.61;78.99;100614.59;5058298;28;66521;-39
2023/07/29 04:20:15;;;;;;;4.22;3.30;;;;;;;30.71;79.17;100633.88;5055319;28;70248;-39
2023/07/29 04:22:46;;;;;;;6.03;3.88;;;;;;;30.60;79.12;100615.66;5053044;28;66070;-38
2023/07/29 04:25:18;;;;;;;7.90;3.10;;;;;;;30.73;79.39;100637.19;5058110;28;70366;-37
2023/07/29 04:27:49;;;;;;;13.63;3.35;;;;;;;30.84;77.42;100621.25;5041872;28;66295;-38
2023/07/29 04:30:21;;;;;;;6.15;2.75;;;;;;;30.85;76.84;100601.25;5038396;28;69344;-38
2023/07/29 04:32:53;;;;;;;4.00;3.30;;;;;;;31.08;76.12;100612.19;5051217;28;66656;-39
2023/07/29 04:35:24;;;;;;;3.75;2.90;;;;;;;31.15;76.20;100617.56;5046875;28;69248;-37
2023/07/29 04:37:56;;;;;;;4.80;3.13;;;;;;;31.13;76.17;100593.38;5066564;28;64789;-38
2023/07/29 04:40:28;;;;;;;3.60;3.30;;;;;;;31.26;75.49;100603.22;5057447;28;70544;-38
2023/07/29 04:43:03;;;;;;;5.15;2.90;;;;;;;31.33;75.61;100603.13;5056575;28;66725;-37
2023/07/29 04:45:36;;;;;;;9.63;3.75;;;;;;;31.36;75.70;100608.94;5055369;28;70468;-37
2023/07/29 04:48:08;;;;;;;2.88;2.45;;;;;;;31.42;75.24;100612.59;5054080;28;66750;-38
2023/07/29 04:50:41;;;;;;;10.82;3.08;;;;;;;31.32;75.31;100587.94;5055065;28;69971;-39
2023/07/29 04:53:12;;;;;;;7.10;2.95;;;;;;;31.48;75.43;100600.84;5051875;28;66290;-39
2023/07/29 04:55:44;;;;;;;9.82;3.40;;;;;;;31.45;75.28;100595.88;5056414;28;69314;-38
2023/07/29 04:58:15;;;;;;;4.65;3.22;;;;;;;31.51;75.05;100597.69;5051780;28;66556;-39
2023/07/29 05:00:50;;;;;;;6.38;3.15;;;;;;;31.49;75.00;100580.81;5047113;28;70215;-38
2023/07/29 05:03:22;;;;;;;3.95;2.55;;;;;;;31.58;74.74;100584.84;5058755;28;66524;-37
2023/07/29 05:05:55;;;;;;;6.82;2.75;;;;;;;31.59;74.58;100581.09;5051645;28;69651;-38
2023/07/29 05:08:28;;;;;;;8.38;2.97;;;;;;;31.30;74.87;100520.41;5054443;28;66839;-39
2023/07/29 05:10:59;;;;;;;4.40;3.17;;;;;;;31.58;74.74;100556.91;5044225;28;70236;-38
2023/07/29 05:13:31;;;;;;;4.15;2.90;;;;;;;31.50;74.68;100528.25;5048389;28;66409;-39
2023/07/29 05:16:03;;;;;;;6.13;2.83;;;;;;;31.69;74.50;100563.41;5054763;28;69036;-37
2023/07/29 05:18:35;;;;;;;4.57;2.97;;;;;;;31.65;74.28;100543.22;5048962;28;66106;-37
2023/07/29 05:21:08;;;;;;;7.53;3.45;;;;;;;31.68;74.39;100543.59;5051580;28;67448;-37
2023/07/29 05:23:39;;;;;;;3.65;2.97;;;;;;;31.74;74.41;100533.72;5051448;28;66463;-39
2023/07/29 05:26:11;;;;;;;6.45;3.40;;;;;;;31.43;74.23;100478.75;5049685;28;69899;-37
2023/07/29 05:28:42;;;;;;;5.75;3.30;;;;;;;31.75;74.07;100524.50;5054458;28;65796;-38
2023/07/29 05:31:14;;;;;;;4.05;3.22;;;;;;;31.72;74.05;100522.25;5056870;28;70396;-39
2023/07/29 05:33:46;;;;;;;3.33;3.03;;;;;;;31.80;74.01;100521.91;5053493;28;66768;-39
2023/07/29 05:36:18;;;;;;;8.50;3.28;;;;;;;31.73;74.00;100504.91;5053894;28;69444;-37
2023/07/29 05:38:50;;;;;;;4.05;2.70;;;;;;;31.82;73.85;100514.38;5054350;28;66488;-37
2023/07/29 05:41:21;;;;;;;3.72;3.33;;;;;;;31.76;73.85;100499.88;5047436;28;70266;-39
2023/07/29 05:43:52;;;;;;;;;;;;;;;31.53;75.04;100511.50;5049226;28;66580;-36
2023/07/29 05:46:24;;;;;;;5.88;2.90;;;;;;;31.85;74.21;100503.06;5056532;28;69249;-37
2023/07/29 05:48:56;;;;;;;5.55;3.40;;;;;;;31.86;73.71;100501.97;5054246;28;65854;-39
2023/07/29 05:51:28;;;;;;;7.20;2.90;;;;;;;31.91;73.54;100496.72;5040550;28;69764;-37
2023/07/29 05:54:00;;;;;;;4.60;2.63;;;;;;;31.87;73.37;100479.22;5046771;28;65404;-38
2023/07/29 05:56:32;;;;;;;3.97;2.65;;;;;;;31.89;73.38;100485.22;5058134;28;70391;-37
2023/07/29 05:59:04;;;;;;;4.63;3.22;;;;;;;31.99;73.43;100504.50;5052915;28;66310;-37
2023/07/29 06:01:36;;;;;;;5.15;2.70;;;;;;;31.96;73.11;100488.69;5047272;28;69461;-37
2023/07/29 06:04:08;;;;;;;4.75;2.72;;;;;;;31.89;73.26;100465.44;5069453;28;66184;-38
2023/07/29 06:06:39;;;;;;;8.40;3.05;;;;;;;32.03;73.29;100480.41;5052881;28;70516;-37
2023/07/29 06:09:11;;;;;;;4.53;2.90;;;;;;;32.01;73.35;100480.69;5043345;28;65665;-38
2023/07/29 06:11:43;;;;;;;7.47;2.55;;;;;;;31.89;73.28;100449.97;5052268;28;70407;-37
2023/07/29 06:14:15;;;;;;;3.40;2.60;;;;;;;32.02;73.16;100463.31;5046495;28;66232;-37
2023/07/29 06:16:46;;;;;;;3.45;2.72;;;;;;;32.05;73.20;100454.69;5052102;28;69280;-38
2023/07/29 06:19:20;;;;;;;4.50;3.03;;;;;;;31.90;73.05;100446.22;5043706;28;65821;-37
2023/07/29 06:21:56;;;;;;;4.45;2.88;;;;;;;31.42;72.89;100340.75;5052364;28;70290;-37
2023/07/29 06:24:27;;;;;;;4.22;2.53;;;;;;;32.01;72.89;100431.84;5050258;28;66566;-36
2023/07/29 06:26:59;;;;;;;5.68;3.22;;;;;;;32.10;72.96;100455.91;5047994;28;70542;-36
2023/07/29 06:29:31;;;;;;;4.65;3.10;;;;;;;32.10;72.81;100445.84;5048213;28;65809;-39
2023/07/29 06:32:02;;;;;;;5.07;3.47;;;;;;;32.10;72.74;100437.72;5041868;28;69563;-38
2023/07/29 06:34:34;;;;;;;4.10;3.00;;;;;;;31.99;72.95;100428.53;5054918;28;66771;-38
2023/07/29 06:37:05;;;;;;;5.15;3.30;;;;;;;32.02;72.89;100438.09;5050479;28;69909;-36
2023/07/29 06:39:36;;;;;;;;;;;;;;;31.80;73.68;100429.72;5058147;28;65829;-36
2023/07/29 06:42:07;;;;;;;9.98;3.35;;;;;;;31.99;72.82;100414.97;5042590;28;70346;-38
2023/07/29 06:44:40;;;;;;;4.22;2.38;;;;;;;32.12;72.58;100432.03;5050786;28;66316;-37
2023/07/29 06:47:11;;;;;;;3.67;3.05;;;;;;;32.14;72.53;100424.50;5052558;28;69602;-37
2023/07/29 06:49:43;;;;;;;12.05;3.10;;;;;;;31.88;72.68;100388.66;5053434;28;66473;-38
2023/07/29 06:52:14;;;;;;;5.15;2.50;;;;;;;32.12;72.69;100434.75;5050513;28;70184;-37
2023/07/29 06:54:46;;;;;;;4.63;2.50;;;;;;;32.12;72.66;100434.75;5047778;28;66581;-37
2023/07/29 06:57:17;;;;;;;7.72;2.78;;;;;;;32.04;72.51;100423.22;5048953;28;70179;-37
2023/07/29 06:59:49;;;;;;;3.08;2.78;;;;;;;32.11;72.63;100443.97;5046926;28;65751;-37
2023/07/29 07:02:20;;;;;;;3.63;2.55;;;;;;;32.07;72.85;100419.22;5050522;28;70332;-38
2023/07/29 07:04:52;;;;;;;5.57;2.72;;;;;;;32.09;72.84;100424.38;5046454;28;66365;-36
2023/07/29 07:07:23;;;;;;;5.60;2.80;;;;;;;32.07;72.83;100413.78;5053611;28;70028;-37
2023/07/29 07:09:55;;;;;;;3.22;2.70;;;;;;;32.09;72.88;100416.25;5052229;28;66828;-37
2023/07/29 07:12:30;;;;;;;4.38;2.35;;;;;;;32.10;72.81;100396.19;5054824;28;70657;-37
2023/07/29 07:15:02;;;;;;;7.75;3.28;;;;;;;31.98;72.78;100372.63;5055238;28;65271;-37
2023/07/29 07:17:33;;;;;;;9.23;2.80;;;;;;;32.08;72.87;100392.91;5038231;28;69242;-37
2023/07/29 07:20:06;;;;;;;3.85;2.53;;;;;;;32.10;72.40;100396.19;5044994;28;66195;-38
2023/07/29 07:22:39;;;;;;;3.53;2.50;;;;;;;31.99;72.48;100379.69;5048556;28;69366;-36
2023/07/29 07:25:11;;;;;;;4.70;2.83;;;;;;;32.12;72.30;100391.34;5057377;28;66139;-37
2023/07/29 07:27:42;;;;;;;8.02;2.25;;;;;;;32.15;72.09;100389.00;5058982;28;70038;-38
2023/07/29 07:30:14;;;;;;;;;;;;;;;31.84;73.02;100384.75;5055685;28;66086;-37
2023/07/29 07:32:45;;;;;;;3.35;2.33;;;;;;;32.07;72.06;100377.66;5049786;28;70645;-38
2023/07/29 07:35:17;;;;;;;4.32;2.55;;;;;;;32.17;71.89;100391.44;5053175;28;65508;-37
2023/07/29 07:37:48;;;;;;;4.90;2.30;;;;;;;31.99;71.79;100349.84;5058003;28;69306;-36
2023/07/29 07:40:20;;;;;;;3.20;2.15;;;;;;;32.16;71.67;100373.53;5056241;28;66795;-37
2023/07/29 07:42:51;;;;;;;2.38;1.92;;;;;;;32.14;71.56;100365.63;5057142;28;70526;-37
2023/07/29 07:45:23;;;;;;;4.32;2.55;;;;;;;32.16;71.65;100374.34;5047607;28;65879;-37
2023/07/29 07:47:54;;;;;;;2.45;2.17;;;;;;;32.12;71.78;100367.72;5048705;28;69727;-37
2023/07/29 07:50:29;;;;;;;2.50;2.30;;;;;;;32.16;71.80;100373.53;5054459;28;66519;-38
2023/07/29 07:53:00;;;;;;;2.25;2.05;;;;;;;32.07;71.46;100358.66;5054186;28;70530;-39
2023/07/29 07:55:31;;;;;;;2.90;2.28;;;;;;;32.12;71.87;100366.91;5049272;28;66354;-37
2023/07/29 07:58:03;;;;;;;3.10;2.35;;;;;;;31.98;71.57;100347.38;5052835;28;70032;-38
2023/07/29 08:00:34;;;;;;;3.70;2.50;;;;;;;32.13;71.72;100374.00;5050255;28;67178;-37
2023/07/29 08:03:06;;;;;;;3.65;2.33;;;;;;;32.11;71.72;100373.41;5055816;28;69767;-39
2023/07/29 08:05:37;;;;;;;2.60;2.20;;;;;;;32.07;71.82;100359.50;5057609;28;66099;-38
2023/07/29 08:08:09;;;;;;;3.63;2.42;;;;;;;32.10;71.64;100361.75;5051013;28;70440;-38
2023/07/29 08:10:41;;;;;;;3.05;2.40;;;;;;;32.10;71.68;100358.22;5059838;28;66207;-38
2023/07/29 08:13:12;;;;;;;2.78;1.75;;;;;;;32.07;71.78;100362.22;5051651;28;69467;-38
2023/07/29 08:15:48;;;;;;;3.00;1.95;;;;;;;31.28;72.32;100269.66;5059350;28;65288;-41
2023/07/29 08:18:20;;;;;;;3.15;2.42;;;;;;;31.65;72.96;100350.72;5057963;28;70767;-37
2023/07/29 08:20:57;;;;;;;6.35;2.72;;;;;;;31.56;73.75;100371.94;5051877;28;65541;-38
2023/07/29 08:23:30;;;;;;;4.68;2.63;;;;;;;31.21;72.96;100277.13;5053382;28;70277;-39
2023/07/29 08:26:05;;;;;;;8.57;3.00;;;;;;;31.87;72.80;100376.16;5054852;28;66305;-39
2023/07/29 08:28:39;;;;;;;3.58;2.45;;;;;;;31.74;72.36;100333.84;5053950;28;70352;-38
2023/07/29 08:31:12;;;;;;;3.88;3.00;;;;;;;31.65;74.69;100353.44;5047258;28;65319;-38
2023/07/29 08:33:43;;;;;;;3.08;2.80;;;;;;;31.54;75.30;100355.13;5057095;28;71227;-39
2023/07/29 08:36:17;;;;;;;4.50;2.78;;;;;;;31.50;75.54;100354.75;5060291;28;43185;-37
2023/07/29 08:38:49;;;;;;;7.70;2.95;;;;;;;31.23;75.71;100305.63;5058747;28;70278;-38
2023/07/29 08:41:29;;;;;;;7.25;3.22;;;;;;;31.33;75.82;100326.69;5059492;28;66518;-36
2023/07/29 08:44:10;;;;;;;6.05;3.38;;;;;;;31.42;76.36;100346.16;5060642;28;70806;-37
2023/07/29 08:46:42;;;;;;;5.05;3.20;;;;;;;31.39;76.18;100339.31;5057262;28;65813;-37
2023/07/29 08:49:18;;;;;;;7.38;3.33;;;;;;;31.47;74.99;100333.53;5056685;28;70328;-37
2023/07/29 08:51:53;;;;;;;3.35;3.05;;;;;;;31.60;74.11;100330.59;5060512;28;65724;-37
2023/07/29 08:54:25;;;;;;;3.38;3.05;;;;;;;31.68;73.90;100328.56;5058375;28;70177;-37
2023/07/29 08:56:58;;;;;;;4.43;3.00;;;;;;;31.79;73.81;100338.56;5055852;28;65665;-37
2023/07/29 08:59:30;;;;;;;9.00;5.88;;;;;;;31.75;74.11;100335.50;5056367;28;70319;-36
2023/07/29 09:02:02;;;;;;;7.03;6.35;;;;;;;31.70;73.93;100315.59;5056709;28;66102;-37
2023/07/29 09:04:33;;;;;;;;;;;;;;;31.50;75.78;100327.66;5045743;28;70113;-39
2023/07/29 09:07:07;;;;;;;6.13;5.18;;;;;;;31.79;74.48;100344.81;5060983;28;66466;-38
2023/07/29 09:09:38;;;;;;;8.38;5.97;;;;;;;31.75;74.15;100323.81;5059500;28;70338;-39
2023/07/29 09:12:11;;;;;;;5.28;4.78;;;;;;;31.77;73.71;100322.53;5058700;28;65638;-40
2023/07/29 09:14:43;;;;;;;9.38;6.78;;;;;;;31.73;73.91;100323.25;5058300;28;70399;-39
2023/07/29 09:17:14;;;;;;;;;;;;;;;31.57;75.29;100343.81;5057827;28;66662;-39
2023/07/29 09:19:49;;;;;;;7.35;6.75;;;;;;;31.85;73.88;100345.75;5059821;28;69155;-38
2023/07/29 09:22:21;;;;;;;7.70;6.80;;;;;;;31.89;73.06;100338.75;5060181;28;66631;-37
2023/07/29 09:24:53;;;;;;;7.60;5.45;;;;;;;31.91;72.83;100344.81;5060705;28;69151;-38
2023/07/29 09:27:29;;;;;;;;;;;;;;;31.58;74.11;100357.09;5058227;28;66171;-36
2023/07/29 09:30:02;;;;;;;9.27;4.30;;;;;;;31.89;72.90;100352.31;5053984;28;69677;-36
2023/07/29 09:32:58;;;;;;;5.25;3.97;;;;;;;31.94;72.51;100355.19;5057234;28;64914;-37
2023/07/29 09:35:33;;;;;;;10.00;3.88;;;;;;;31.51;72.06;100274.25;5059648;28;69278;-37
2023/07/29 09:38:08;;;;;;;5.78;3.75;;;;;;;31.99;72.10;100360.72;5040760;28;66178;-37
2023/07/29 09:40:41;;;;;;;7.22;4.00;;;;;;;32.01;72.16;100366.72;5060765;28;69429;-37
2023/07/29 09:43:12;;;;;;;5.70;3.55;;;;;;;32.02;72.04;100360.22;5045798;28;66671;-38
2023/07/29 09:45:46;;;;;;;5.15;3.53;;;;;;;32.01;72.29;100368.59;5048228;28;69926;-38
2023/07/29 09:48:23;;;;;;;6.97;4.30;;;;;;;31.46;72.10;100293.97;5049999;28;66553;-38
2023/07/29 09:50:55;;;;;;;12.98;8.68;;;;;;;32.00;72.64;100375.91;5058933;28;70025;-39
2023/07/29 09:53:27;;;;;;;13.82;7.40;;;;;;;32.02;72.59;100379.22;5055874;28;66731;-43
2023/07/29 09:55:58;;;;;;;;;;;;;;;31.69;73.89;100379.03;5057305;28;70140;-42
2023/07/29 09:58:30;;;;;;;8.10;7.10;;;;;;;31.99;73.01;100385.13;5058372;28;66353;-41
2023/07/29 10:01:02;;;;;;;8.63;6.05;;;;;;;32.02;72.64;100373.78;5054942;28;70194;-41
2023/07/29 10:03:36;;;;;;;;;;;;;;;31.68;74.00;100383.63;5060249;28;65934;-41
2023/07/29 10:06:08;;;;;;;8.23;6.95;;;;;;;31.79;72.91;100362.97;5058339;28;69545;-42
2023/07/29 10:08:41;;;;;;;6.72;5.80;;;;;;;31.98;73.03;100405.19;5058072;28;65537;-40
2023/07/29 10:11:12;;;;;;;8.65;6.38;;;;;;;31.94;72.58;100393.16;5053668;28;69578;-38
2023/07/29 10:13:45;;;;;;;6.15;5.65;;;;;;;32.00;72.39;100403.03;5053902;28;67004;-39
2023/07/29 10:16:34;;;;;;;7.95;5.47;;;;;;;31.97;72.73;100406.25;5057784;28;70402;-41
2023/07/29 10:19:08;;;;;;;6.68;5.45;;;;;;;31.97;72.54;100418.97;5059984;28;66531;-39
2023/07/29 10:21:44;;;;;;;8.13;6.53;;;;;;;31.95;72.64;100411.06;5054845;28;69057;-39
2023/07/29 10:24:18;;;;;;;11.45;6.43;;;;;;;31.27;72.70;100300.53;5044971;28;66303;-41
2023/07/29 10:26:51;;;;;;;11.93;5.90;;;;;;;31.93;72.70;100412.38;5058190;28;70116;-38
2023/07/29 10:29:25;;;;;;;7.90;5.47;;;;;;;31.89;72.58;100412.00;5056574;28;66392;-39
2023/07/29 10:32:01;;;;;;;10.65;6.40;;;;;;;31.82;72.55;100389.63;5049308;28;70286;-40
2023/07/29 10:34:36;;;;;;;8.38;5.78;;;;;;;31.89;72.37;100422.84;5056116;28;66308;-39
2023/07/29 10:37:09;;;;;;;8.05;5.35;;;;;;;31.91;72.61;100420.75;5058470;28;70587;-39
2023/07/29 10:39:51;;;;;;;5.65;5.18;;;;;;;30.71;72.28;100222.31;5053850;28;66235;-40
2023/07/29 10:42:23;;;;;;;8.73;5.43;;;;;;;31.86;72.53;100414.38;5058959;28;69973;-39
2023/07/29 10:44:55;;;;;;;11.68;5.28;;;;;;;31.86;72.72;100411.66;5054952;28;65763;-39
2023/07/29 10:47:29;;;;;;;5.97;5.00;;;;;;;31.73;72.51;100391.03;5047153;28;69568;-38
2023/07/29 10:50:01;;;;;;;6.10;4.55;;;;;;;31.88;72.20;100415.78;5054460;28;66361;-39
2023/07/29 10:52:44;;;;;;;9.82;4.72;;;;;;;31.15;72.30;100308.69;5044642;28;69314;-38
2023/07/29 10:55:38;;;;;;;9.70;4.80;;;;;;;31.80;72.53;100427.00;5052471;28;66306;-39
2023/07/29 10:58:14;;;;;;;7.43;4.68;;;;;;;31.29;72.32;100323.63;5051202;28;70503;-41
2023/07/29 11:00:46;;;;;;;10.10;4.63;;;;;;;31.88;72.37;100420.41;5043127;28;65831;-40
2023/07/29 11:03:18;;;;;;;5.30;4.80;;;;;;;31.80;72.06;100410.72;5047985;28;70416;-40
2023/07/29 11:05:54;;;;;;;7.45;4.90;;;;;;;31.54;72.05;100377.63;5056117;28;66024;-38
2023/07/29 11:08:29;;;;;;;16.85;5.30;;;;;;;31.34;72.19;100341.88;5044447;28;70129;-42
2023/07/29 11:11:00;;;;;;;6.30;5.00;;;;;;;31.57;73.50;100431.38;5048622;28;66032;-40
2023/07/29 11:13:34;;;;;;;7.72;5.22;;;;;;;30.90;74.12;100344.94;5046324;28;70031;-41
2023/07/29 11:16:07;;;;;;;9.20;5.75;;;;;;;31.44;73.91;100412.63;5053136;28;66320;-42
2023/07/29 11:18:39;;;;;;;9.30;5.35;;;;;;;31.38;74.46;100432.53;5058225;28;70515;-42
2023/07/29 11:21:11;;;;;;;15.60;5.25;;;;;;;31.35;74.32;100443.81;5058087;28;65830;-41
2023/07/29 11:23:42;;;;;;;7.67;4.67;;;;;;;31.30;75.18;100452.66;5051325;28;69676;-42
2023/07/29 11:26:13;;;;;;;;;;;;;;;31.09;75.71;100454.03;5052348;28;65873;-43
2023/07/29 11:28:47;;;;;;;7.03;6.15;;;;;;;31.25;75.45;100438.97;5057203;28;70413;-46
2023/07/29 11:31:20;;;;;;;6.85;5.68;;;;;;;31.36;75.78;100472.59;5048504;28;66858;-41
2023/07/29 11:33:51;;;;;;;6.63;6.05;;;;;;;31.34;76.11;100477.38;5057462;28;70531;-43
2023/07/29 11:36:24;;;;;;;6.88;6.28;;;;;;;31.34;75.91;100475.53;5058299;28;66869;-42
2023/07/29 11:38:55;;;;;;;7.32;6.70;;;;;;;31.02;76.50;100434.34;5050664;28;69704;-44
2023/07/29 11:41:27;;;;;;;6.70;6.03;;;;;;;31.30;76.34;100481.63;5057987;28;65812;-40
2023/07/29 11:43:58;;;;;;;;;;;;;;;31.07;77.46;100490.53;5045984;28;70370;-40
2023/07/29 11:46:29;;;;;;;8.00;7.28;;;;;;;31.28;76.21;100481.84;5055662;28;65578;-43
2023/07/29 11:49:01;;;;;;;7.25;6.68;;;;;;;31.26;76.90;100499.41;5055933;28;69350;-41
2023/07/29 11:51:32;;;;;;;;;;;;;;;31.03;77.77;100508.28;5054270;28;66258;-41
2023/07/29 11:54:05;;;;;;;7.93;7.15;;;;;;;31.26;77.51;100507.53;5055995;28;70452;-43
2023/07/29 11:56:37;;;;;;;7.95;6.57;;;;;;;31.15;77.17;100493.75;5049638;28;65825;-44